sensor_id;sensor_type;location;lat;lon;timestamp;P1;durP1;ratioP1;P2;durP2;ratioP2
11907;SDS011;6014;47.690;9.130;2022-09-09T00:00:44;2.55;;;1.52;;
11907;SDS011;6014;47.690;9.130;2022-09-09T00:03:16;5.10;;;1.75;;
11907;SDS011;6014;47.690;9.130;2022-09-09T00:05:50;4.97;;;1.60;;
11907;SDS011;6014;47.690;9.130;2022-09-09T00:08:25;5.32;;;1.63;;
11907;SDS011;6014;47.690;9.130;2022-09-09T00:10:58;4.30;;;1.40;;
11907;SDS011;6014;47.690;9.130;2022-09-09T00:13:28;3.20;;;1.42;;
11907;SDS011;6014;47.690;9.130;2022-09-09T00:15:59;6.05;;;1.80;;
11907;SDS011;6014;47.690;9.130;2022-09-09T00:18:31;4.40;;;1.60;;
11907;SDS011;6014;47.690;9.130;2022-09-09T00:21:06;3.88;;;1.45;;
11907;SDS011;6014;47.690;9.130;2022-09-09T00:23:37;4.65;;;1.33;;
11907;SDS011;6014;47.690;9.130;2022-09-09T00:26:08;4.38;;;1.50;;
11907;SDS011;6014;47.690;9.130;2022-09-09T00:28:39;5.32;;;1.50;;
11907;SDS011;6014;47.690;9.130;2022-09-09T00:31:10;10.20;;;1.58;;
11907;SDS011;6014;47.690;9.130;2022-09-09T00:33:40;2.20;;;1.27;;
11907;SDS011;6014;47.690;9.130;2022-09-09T00:36:12;6.13;;;1.77;;
11907;SDS011;6014;47.690;9.130;2022-09-09T00:38:42;6.47;;;1.55;;
11907;SDS011;6014;47.690;9.130;2022-09-09T00:41:14;4.20;;;1.38;;
11907;SDS011;6014;47.690;9.130;2022-09-09T00:43:46;6.22;;;1.55;;
11907;SDS011;6014;47.690;9.130;2022-09-09T00:49:09;4.82;;;1.70;;
11907;SDS011;6014;47.690;9.130;2022-09-09T00:51:46;5.25;;;1.75;;
11907;SDS011;6014;47.690;9.130;2022-09-09T00:54:22;3.80;;;1.45;;
11907;SDS011;6014;47.690;9.130;2022-09-09T00:56:55;6.40;;;1.60;;
11907;SDS011;6014;47.690;9.130;2022-09-09T00:59:28;4.30;;;1.50;;
11907;SDS011;6014;47.690;9.130;2022-09-09T01:02:03;7.75;;;1.88;;
11907;SDS011;6014;47.690;9.130;2022-09-09T01:04:35;6.80;;;1.67;;
11907;SDS011;6014;47.690;9.130;2022-09-09T01:07:07;11.25;;;1.60;;
11907;SDS011;6014;47.690;9.130;2022-09-09T01:09:42;8.68;;;1.80;;
11907;SDS011;6014;47.690;9.130;2022-09-09T01:12:15;1.80;;;1.10;;
11907;SDS011;6014;47.690;9.130;2022-09-09T01:14:45;1.85;;;1.20;;
11907;SDS011;6014;47.690;9.130;2022-09-09T01:17:17;4.40;;;1.52;;
11907;SDS011;6014;47.690;9.130;2022-09-09T01:22:36;3.88;;;1.90;;
11907;SDS011;6014;47.690;9.130;2022-09-09T01:27:54;6.35;;;1.85;;
11907;SDS011;6014;47.690;9.130;2022-09-09T01:30:24;5.75;;;1.80;;
11907;SDS011;6014;47.690;9.130;2022-09-09T01:32:54;4.68;;;1.95;;
11907;SDS011;6014;47.690;9.130;2022-09-09T01:35:29;6.28;;;1.92;;
11907;SDS011;6014;47.690;9.130;2022-09-09T01:37:58;5.45;;;1.63;;
11907;SDS011;6014;47.690;9.130;2022-09-09T01:40:26;5.63;;;1.67;;
11907;SDS011;6014;47.690;9.130;2022-09-09T01:42:56;4.57;;;1.50;;
11907;SDS011;6014;47.690;9.130;2022-09-09T01:45:24;3.15;;;1.40;;
11907;SDS011;6014;47.690;9.130;2022-09-09T01:47:53;6.55;;;1.70;;
11907;SDS011;6014;47.690;9.130;2022-09-09T01:50:22;4.45;;;1.70;;
11907;SDS011;6014;47.690;9.130;2022-09-09T01:52:52;7.28;;;1.67;;
11907;SDS011;6014;47.690;9.130;2022-09-09T01:55:23;6.80;;;1.75;;
11907;SDS011;6014;47.690;9.130;2022-09-09T01:57:59;3.33;;;1.42;;
11907;SDS011;6014;47.690;9.130;2022-09-09T02:00:30;3.55;;;1.50;;
11907;SDS011;6014;47.690;9.130;2022-09-09T02:03:00;6.72;;;1.70;;
11907;SDS011;6014;47.690;9.130;2022-09-09T02:05:34;6.07;;;1.92;;
11907;SDS011;6014;47.690;9.130;2022-09-09T02:08:05;4.32;;;2.00;;
11907;SDS011;6014;47.690;9.130;2022-09-09T02:10:36;4.57;;;1.73;;
11907;SDS011;6014;47.690;9.130;2022-09-09T02:13:09;4.47;;;1.60;;
11907;SDS011;6014;47.690;9.130;2022-09-09T02:15:39;9.48;;;2.65;;
11907;SDS011;6014;47.690;9.130;2022-09-09T02:18:08;4.28;;;1.92;;
11907;SDS011;6014;47.690;9.130;2022-09-09T02:20:38;3.20;;;1.63;;
11907;SDS011;6014;47.690;9.130;2022-09-09T02:23:07;5.78;;;1.90;;
11907;SDS011;6014;47.690;9.130;2022-09-09T02:25:37;4.47;;;1.95;;
11907;SDS011;6014;47.690;9.130;2022-09-09T02:28:06;4.28;;;1.60;;
11907;SDS011;6014;47.690;9.130;2022-09-09T02:30:37;4.22;;;1.73;;
11907;SDS011;6014;47.690;9.130;2022-09-09T02:33:07;4.97;;;1.52;;
11907;SDS011;6014;47.690;9.130;2022-09-09T02:35:36;4.15;;;1.83;;
11907;SDS011;6014;47.690;9.130;2022-09-09T02:38:07;6.50;;;2.13;;
11907;SDS011;6014;47.690;9.130;2022-09-09T02:40:36;7.70;;;2.30;;
11907;SDS011;6014;47.690;9.130;2022-09-09T02:43:05;6.45;;;1.90;;
11907;SDS011;6014;47.690;9.130;2022-09-09T02:45:35;4.60;;;1.95;;
11907;SDS011;6014;47.690;9.130;2022-09-09T02:48:07;3.70;;;1.60;;
11907;SDS011;6014;47.690;9.130;2022-09-09T02:50:39;6.28;;;2.17;;
11907;SDS011;6014;47.690;9.130;2022-09-09T02:53:12;7.82;;;2.00;;
11907;SDS011;6014;47.690;9.130;2022-09-09T02:55:45;5.30;;;2.00;;
11907;SDS011;6014;47.690;9.130;2022-09-09T02:58:15;6.57;;;2.40;;
11907;SDS011;6014;47.690;9.130;2022-09-09T03:00:45;4.30;;;1.92;;
11907;SDS011;6014;47.690;9.130;2022-09-09T03:03:16;4.43;;;1.70;;
11907;SDS011;6014;47.690;9.130;2022-09-09T03:05:45;3.30;;;1.65;;
11907;SDS011;6014;47.690;9.130;2022-09-09T03:08:14;3.35;;;1.77;;
11907;SDS011;6014;47.690;9.130;2022-09-09T03:10:43;8.93;;;2.10;;
11907;SDS011;6014;47.690;9.130;2022-09-09T03:13:11;6.60;;;1.92;;
11907;SDS011;6014;47.690;9.130;2022-09-09T03:15:41;4.63;;;2.10;;
11907;SDS011;6014;47.690;9.130;2022-09-09T03:18:09;6.93;;;1.98;;
11907;SDS011;6014;47.690;9.130;2022-09-09T03:20:39;5.38;;;2.03;;
11907;SDS011;6014;47.690;9.130;2022-09-09T03:23:09;6.35;;;2.00;;
11907;SDS011;6014;47.690;9.130;2022-09-09T03:25:45;6.00;;;2.13;;
11907;SDS011;6014;47.690;9.130;2022-09-09T03:28:14;4.28;;;1.92;;
11907;SDS011;6014;47.690;9.130;2022-09-09T03:30:42;6.18;;;1.90;;
11907;SDS011;6014;47.690;9.130;2022-09-09T03:33:11;4.72;;;2.03;;
11907;SDS011;6014;47.690;9.130;2022-09-09T03:35:45;6.10;;;2.10;;
11907;SDS011;6014;47.690;9.130;2022-09-09T03:38:14;5.97;;;2.30;;
11907;SDS011;6014;47.690;9.130;2022-09-09T03:40:48;5.70;;;2.30;;
11907;SDS011;6014;47.690;9.130;2022-09-09T03:43:17;6.95;;;1.90;;
11907;SDS011;6014;47.690;9.130;2022-09-09T03:45:46;4.88;;;1.77;;
11907;SDS011;6014;47.690;9.130;2022-09-09T03:48:15;5.25;;;2.10;;
11907;SDS011;6014;47.690;9.130;2022-09-09T03:50:44;5.90;;;1.80;;
11907;SDS011;6014;47.690;9.130;2022-09-09T03:53:15;4.25;;;1.98;;
11907;SDS011;6014;47.690;9.130;2022-09-09T03:55:44;4.05;;;1.73;;
11907;SDS011;6014;47.690;9.130;2022-09-09T03:58:12;7.68;;;1.83;;
11907;SDS011;6014;47.690;9.130;2022-09-09T04:00:41;8.65;;;2.00;;
11907;SDS011;6014;47.690;9.130;2022-09-09T04:03:11;7.07;;;2.30;;
11907;SDS011;6014;47.690;9.130;2022-09-09T04:05:40;9.38;;;2.35;;
11907;SDS011;6014;47.690;9.130;2022-09-09T04:08:08;8.88;;;2.20;;
11907;SDS011;6014;47.690;9.130;2022-09-09T04:10:39;9.48;;;2.28;;
11907;SDS011;6014;47.690;9.130;2022-09-09T04:13:08;4.30;;;1.75;;
11907;SDS011;6014;47.690;9.130;2022-09-09T04:15:37;5.03;;;2.03;;
11907;SDS011;6014;47.690;9.130;2022-09-09T04:18:06;6.38;;;1.92;;
11907;SDS011;6014;47.690;9.130;2022-09-09T04:20:34;7.65;;;2.03;;
11907;SDS011;6014;47.690;9.130;2022-09-09T04:23:02;4.88;;;1.70;;
11907;SDS011;6014;47.690;9.130;2022-09-09T04:25:31;3.55;;;1.70;;
11907;SDS011;6014;47.690;9.130;2022-09-09T04:28:01;5.88;;;1.88;;
11907;SDS011;6014;47.690;9.130;2022-09-09T04:30:30;8.75;;;2.28;;
11907;SDS011;6014;47.690;9.130;2022-09-09T04:32:58;5.25;;;2.20;;
11907;SDS011;6014;47.690;9.130;2022-09-09T04:35:26;8.18;;;2.00;;
11907;SDS011;6014;47.690;9.130;2022-09-09T04:37:55;4.68;;;2.13;;
11907;SDS011;6014;47.690;9.130;2022-09-09T04:40:23;5.05;;;2.13;;
11907;SDS011;6014;47.690;9.130;2022-09-09T04:42:52;5.05;;;2.15;;
11907;SDS011;6014;47.690;9.130;2022-09-09T04:45:21;5.65;;;1.90;;
11907;SDS011;6014;47.690;9.130;2022-09-09T04:47:50;5.95;;;2.08;;
11907;SDS011;6014;47.690;9.130;2022-09-09T04:50:19;6.65;;;2.10;;
11907;SDS011;6014;47.690;9.130;2022-09-09T04:52:47;5.40;;;1.75;;
11907;SDS011;6014;47.690;9.130;2022-09-09T04:55:15;4.38;;;1.85;;
11907;SDS011;6014;47.690;9.130;2022-09-09T04:57:44;4.15;;;1.73;;
11907;SDS011;6014;47.690;9.130;2022-09-09T05:00:13;5.57;;;1.45;;
11907;SDS011;6014;47.690;9.130;2022-09-09T05:02:43;6.22;;;1.95;;
11907;SDS011;6014;47.690;9.130;2022-09-09T05:05:11;2.85;;;1.33;;
11907;SDS011;6014;47.690;9.130;2022-09-09T05:07:39;5.22;;;1.60;;
11907;SDS011;6014;47.690;9.130;2022-09-09T05:10:08;5.82;;;1.48;;
11907;SDS011;6014;47.690;9.130;2022-09-09T05:12:36;2.80;;;1.40;;
11907;SDS011;6014;47.690;9.130;2022-09-09T05:15:05;3.92;;;1.45;;
11907;SDS011;6014;47.690;9.130;2022-09-09T05:17:33;4.72;;;1.45;;
11907;SDS011;6014;47.690;9.130;2022-09-09T05:20:04;3.72;;;1.30;;
11907;SDS011;6014;47.690;9.130;2022-09-09T05:22:36;5.65;;;1.80;;
11907;SDS011;6014;47.690;9.130;2022-09-09T05:25:04;3.50;;;1.48;;
11907;SDS011;6014;47.690;9.130;2022-09-09T05:27:34;3.60;;;1.50;;
11907;SDS011;6014;47.690;9.130;2022-09-09T05:30:02;4.85;;;1.60;;
11907;SDS011;6014;47.690;9.130;2022-09-09T05:32:31;4.80;;;1.30;;
11907;SDS011;6014;47.690;9.130;2022-09-09T05:35:00;5.07;;;1.63;;
11907;SDS011;6014;47.690;9.130;2022-09-09T05:37:30;6.28;;;1.65;;
11907;SDS011;6014;47.690;9.130;2022-09-09T05:39:58;3.70;;;1.42;;
11907;SDS011;6014;47.690;9.130;2022-09-09T05:42:29;2.95;;;1.50;;
11907;SDS011;6014;47.690;9.130;2022-09-09T05:44:58;2.33;;;1.30;;
11907;SDS011;6014;47.690;9.130;2022-09-09T05:47:27;3.60;;;1.58;;
11907;SDS011;6014;47.690;9.130;2022-09-09T05:49:55;2.88;;;1.30;;
11907;SDS011;6014;47.690;9.130;2022-09-09T05:52:23;2.97;;;1.38;;
11907;SDS011;6014;47.690;9.130;2022-09-09T05:54:54;4.18;;;1.60;;
11907;SDS011;6014;47.690;9.130;2022-09-09T05:57:23;4.03;;;1.70;;
11907;SDS011;6014;47.690;9.130;2022-09-09T05:59:51;5.38;;;1.40;;
11907;SDS011;6014;47.690;9.130;2022-09-09T06:02:20;3.97;;;1.45;;
11907;SDS011;6014;47.690;9.130;2022-09-09T06:04:49;4.00;;;1.50;;
11907;SDS011;6014;47.690;9.130;2022-09-09T06:07:17;3.45;;;1.48;;
11907;SDS011;6014;47.690;9.130;2022-09-09T06:09:46;6.05;;;1.52;;
11907;SDS011;6014;47.690;9.130;2022-09-09T06:12:16;2.88;;;1.33;;
11907;SDS011;6014;47.690;9.130;2022-09-09T06:14:44;3.50;;;1.50;;
11907;SDS011;6014;47.690;9.130;2022-09-09T06:17:12;4.68;;;1.27;;
11907;SDS011;6014;47.690;9.130;2022-09-09T06:19:41;3.40;;;1.55;;
11907;SDS011;6014;47.690;9.130;2022-09-09T06:22:09;5.18;;;1.70;;
11907;SDS011;6014;47.690;9.130;2022-09-09T06:24:38;6.05;;;1.63;;
11907;SDS011;6014;47.690;9.130;2022-09-09T06:27:06;6.03;;;1.23;;
11907;SDS011;6014;47.690;9.130;2022-09-09T06:29:36;3.67;;;1.40;;
11907;SDS011;6014;47.690;9.130;2022-09-09T06:32:04;6.53;;;1.83;;
11907;SDS011;6014;47.690;9.130;2022-09-09T06:34:34;2.88;;;1.30;;
11907;SDS011;6014;47.690;9.130;2022-09-09T06:37:03;5.00;;;1.25;;
11907;SDS011;6014;47.690;9.130;2022-09-09T06:39:32;5.03;;;1.45;;
11907;SDS011;6014;47.690;9.130;2022-09-09T06:42:01;4.95;;;1.42;;
11907;SDS011;6014;47.690;9.130;2022-09-09T06:44:30;4.00;;;1.42;;
11907;SDS011;6014;47.690;9.130;2022-09-09T06:47:02;4.72;;;1.80;;
11907;SDS011;6014;47.690;9.130;2022-09-09T06:49:31;4.15;;;1.23;;
11907;SDS011;6014;47.690;9.130;2022-09-09T06:52:01;3.83;;;1.60;;
11907;SDS011;6014;47.690;9.130;2022-09-09T06:54:29;3.13;;;1.40;;
11907;SDS011;6014;47.690;9.130;2022-09-09T06:56:58;2.70;;;1.17;;
11907;SDS011;6014;47.690;9.130;2022-09-09T06:59:46;3.75;;;1.30;;
11907;SDS011;6014;47.690;9.130;2022-09-09T07:02:16;4.10;;;1.55;;
11907;SDS011;6014;47.690;9.130;2022-09-09T07:04:44;2.35;;;1.65;;
11907;SDS011;6014;47.690;9.130;2022-09-09T07:07:13;3.95;;;1.20;;
11907;SDS011;6014;47.690;9.130;2022-09-09T07:09:41;2.67;;;1.33;;
11907;SDS011;6014;47.690;9.130;2022-09-09T07:12:11;2.85;;;1.10;;
11907;SDS011;6014;47.690;9.130;2022-09-09T07:14:40;2.47;;;1.25;;
11907;SDS011;6014;47.690;9.130;2022-09-09T07:17:08;4.63;;;1.63;;
11907;SDS011;6014;47.690;9.130;2022-09-09T07:19:38;7.07;;;1.50;;
11907;SDS011;6014;47.690;9.130;2022-09-09T07:22:06;1.63;;;1.10;;
11907;SDS011;6014;47.690;9.130;2022-09-09T07:24:36;2.38;;;1.27;;
11907;SDS011;6014;47.690;9.130;2022-09-09T07:27:05;2.58;;;1.20;;
11907;SDS011;6014;47.690;9.130;2022-09-09T07:29:33;4.38;;;1.17;;
11907;SDS011;6014;47.690;9.130;2022-09-09T07:32:02;1.88;;;0.80;;
11907;SDS011;6014;47.690;9.130;2022-09-09T07:34:30;2.05;;;0.98;;
11907;SDS011;6014;47.690;9.130;2022-09-09T07:37:00;4.20;;;1.13;;
11907;SDS011;6014;47.690;9.130;2022-09-09T07:39:28;3.42;;;1.15;;
11907;SDS011;6014;47.690;9.130;2022-09-09T07:41:57;2.92;;;1.00;;
11907;SDS011;6014;47.690;9.130;2022-09-09T07:44:25;2.97;;;0.85;;
11907;SDS011;6014;47.690;9.130;2022-09-09T07:46:54;1.58;;;0.68;;
11907;SDS011;6014;47.690;9.130;2022-09-09T07:49:22;1.13;;;0.80;;
11907;SDS011;6014;47.690;9.130;2022-09-09T07:51:57;2.30;;;0.95;;
11907;SDS011;6014;47.690;9.130;2022-09-09T07:54:27;4.63;;;1.20;;
11907;SDS011;6014;47.690;9.130;2022-09-09T07:56:58;2.40;;;0.88;;
11907;SDS011;6014;47.690;9.130;2022-09-09T07:59:26;2.33;;;0.88;;
11907;SDS011;6014;47.690;9.130;2022-09-09T08:01:56;3.15;;;1.00;;
11907;SDS011;6014;47.690;9.130;2022-09-09T08:04:25;1.23;;;0.80;;
11907;SDS011;6014;47.690;9.130;2022-09-09T08:06:55;2.78;;;1.20;;
11907;SDS011;6014;47.690;9.130;2022-09-09T08:09:24;2.47;;;0.80;;
11907;SDS011;6014;47.690;9.130;2022-09-09T08:11:56;1.25;;;0.63;;
11907;SDS011;6014;47.690;9.130;2022-09-09T08:14:25;2.35;;;0.98;;
11907;SDS011;6014;47.690;9.130;2022-09-09T08:16:53;1.85;;;0.80;;
11907;SDS011;6014;47.690;9.130;2022-09-09T08:19:23;2.78;;;1.08;;
11907;SDS011;6014;47.690;9.130;2022-09-09T08:21:51;1.48;;;0.90;;
11907;SDS011;6014;47.690;9.130;2022-09-09T08:24:20;2.92;;;1.00;;
11907;SDS011;6014;47.690;9.130;2022-09-09T08:26:49;4.25;;;0.90;;
11907;SDS011;6014;47.690;9.130;2022-09-09T08:29:19;2.08;;;0.80;;
11907;SDS011;6014;47.690;9.130;2022-09-09T08:31:48;1.63;;;0.90;;
11907;SDS011;6014;47.690;9.130;2022-09-09T08:34:17;2.28;;;0.93;;
11907;SDS011;6014;47.690;9.130;2022-09-09T08:36:47;2.97;;;1.08;;
11907;SDS011;6014;47.690;9.130;2022-09-09T08:39:16;4.93;;;1.77;;
11907;SDS011;6014;47.690;9.130;2022-09-09T08:42:00;1.75;;;0.90;;
11907;SDS011;6014;47.690;9.130;2022-09-09T08:44:39;3.78;;;1.10;;
11907;SDS011;6014;47.690;9.130;2022-09-09T08:47:15;1.42;;;0.80;;
11907;SDS011;6014;47.690;9.130;2022-09-09T08:49:54;3.28;;;1.15;;
11907;SDS011;6014;47.690;9.130;2022-09-09T08:52:27;1.42;;;0.90;;
11907;SDS011;6014;47.690;9.130;2022-09-09T08:54:58;3.40;;;0.82;;
11907;SDS011;6014;47.690;9.130;2022-09-09T08:57:27;2.65;;;1.08;;
11907;SDS011;6014;47.690;9.130;2022-09-09T08:59:58;3.60;;;0.90;;
11907;SDS011;6014;47.690;9.130;2022-09-09T09:02:28;4.10;;;1.35;;
11907;SDS011;6014;47.690;9.130;2022-09-09T09:05:05;2.65;;;0.95;;
11907;SDS011;6014;47.690;9.130;2022-09-09T09:07:40;2.63;;;1.02;;
11907;SDS011;6014;47.690;9.130;2022-09-09T09:10:12;2.83;;;1.10;;
11907;SDS011;6014;47.690;9.130;2022-09-09T09:13:03;3.35;;;0.95;;
11907;SDS011;6014;47.690;9.130;2022-09-09T09:15:37;2.70;;;1.17;;
11907;SDS011;6014;47.690;9.130;2022-09-09T09:18:07;3.88;;;0.90;;
11907;SDS011;6014;47.690;9.130;2022-09-09T09:20:38;1.88;;;1.00;;
11907;SDS011;6014;47.690;9.130;2022-09-09T09:23:12;2.78;;;1.08;;
11907;SDS011;6014;47.690;9.130;2022-09-09T09:25:44;2.67;;;1.10;;
11907;SDS011;6014;47.690;9.130;2022-09-09T09:28:13;4.35;;;1.20;;
11907;SDS011;6014;47.690;9.130;2022-09-09T09:30:46;4.25;;;1.05;;
11907;SDS011;6014;47.690;9.130;2022-09-09T09:33:20;3.28;;;1.08;;
11907;SDS011;6014;47.690;9.130;2022-09-09T09:35:49;4.40;;;1.00;;
11907;SDS011;6014;47.690;9.130;2022-09-09T09:38:18;5.47;;;1.25;;
11907;SDS011;6014;47.690;9.130;2022-09-09T09:41:08;5.68;;;1.20;;
11907;SDS011;6014;47.690;9.130;2022-09-09T09:43:37;2.70;;;1.10;;
11907;SDS011;6014;47.690;9.130;2022-09-09T09:46:19;3.40;;;1.00;;
11907;SDS011;6014;47.690;9.130;2022-09-09T09:48:55;3.50;;;1.20;;
11907;SDS011;6014;47.690;9.130;2022-09-09T09:51:24;6.50;;;1.20;;
11907;SDS011;6014;47.690;9.130;2022-09-09T09:53:53;1.60;;;0.80;;
11907;SDS011;6014;47.690;9.130;2022-09-09T09:56:26;1.65;;;0.90;;
11907;SDS011;6014;47.690;9.130;2022-09-09T09:58:55;7.30;;;1.40;;
11907;SDS011;6014;47.690;9.130;2022-09-09T10:01:27;3.88;;;0.98;;
11907;SDS011;6014;47.690;9.130;2022-09-09T10:03:57;3.45;;;1.08;;
11907;SDS011;6014;47.690;9.130;2022-09-09T10:06:29;4.15;;;1.23;;
11907;SDS011;6014;47.690;9.130;2022-09-09T10:08:58;1.73;;;0.98;;
11907;SDS011;6014;47.690;9.130;2022-09-09T10:11:34;3.38;;;1.45;;
11907;SDS011;6014;47.690;9.130;2022-09-09T10:14:08;3.15;;;1.00;;
11907;SDS011;6014;47.690;9.130;2022-09-09T10:16:46;3.92;;;1.20;;
11907;SDS011;6014;47.690;9.130;2022-09-09T10:19:19;2.78;;;1.00;;
11907;SDS011;6014;47.690;9.130;2022-09-09T10:21:54;3.55;;;1.00;;
11907;SDS011;6014;47.690;9.130;2022-09-09T10:24:31;4.10;;;1.20;;
11907;SDS011;6014;47.690;9.130;2022-09-09T10:27:03;4.35;;;1.50;;
11907;SDS011;6014;47.690;9.130;2022-09-09T10:29:40;4.68;;;1.52;;
11907;SDS011;6014;47.690;9.130;2022-09-09T10:32:20;3.25;;;1.10;;
11907;SDS011;6014;47.690;9.130;2022-09-09T10:34:55;5.32;;;1.13;;
11907;SDS011;6014;47.690;9.130;2022-09-09T10:37:31;3.75;;;1.10;;
11907;SDS011;6014;47.690;9.130;2022-09-09T10:40:02;2.38;;;1.00;;
11907;SDS011;6014;47.690;9.130;2022-09-09T10:42:33;3.63;;;1.10;;
11907;SDS011;6014;47.690;9.130;2022-09-09T10:45:06;5.03;;;1.23;;
11907;SDS011;6014;47.690;9.130;2022-09-09T10:47:43;2.78;;;1.02;;
11907;SDS011;6014;47.690;9.130;2022-09-09T10:50:24;3.00;;;1.10;;
11907;SDS011;6014;47.690;9.130;2022-09-09T10:53:17;4.15;;;1.13;;
11907;SDS011;6014;47.690;9.130;2022-09-09T10:55:48;2.33;;;1.10;;
11907;SDS011;6014;47.690;9.130;2022-09-09T10:58:20;3.55;;;1.25;;
11907;SDS011;6014;47.690;9.130;2022-09-09T11:00:51;3.95;;;1.02;;
11907;SDS011;6014;47.690;9.130;2022-09-09T11:03:25;4.97;;;1.17;;
11907;SDS011;6014;47.690;9.130;2022-09-09T11:05:56;4.95;;;1.00;;
11907;SDS011;6014;47.690;9.130;2022-09-09T11:08:26;5.40;;;1.55;;
11907;SDS011;6014;47.690;9.130;2022-09-09T11:10:57;6.60;;;1.40;;
11907;SDS011;6014;47.690;9.130;2022-09-09T11:13:28;3.92;;;1.25;;
11907;SDS011;6014;47.690;9.130;2022-09-09T11:16:00;5.45;;;1.95;;
11907;SDS011;6014;47.690;9.130;2022-09-09T11:18:30;2.38;;;0.98;;
11907;SDS011;6014;47.690;9.130;2022-09-09T11:21:00;4.65;;;1.20;;
11907;SDS011;6014;47.690;9.130;2022-09-09T11:23:32;6.07;;;1.08;;
11907;SDS011;6014;47.690;9.130;2022-09-09T11:26:07;2.83;;;0.93;;
11907;SDS011;6014;47.690;9.130;2022-09-09T11:28:41;2.75;;;1.23;;
11907;SDS011;6014;47.690;9.130;2022-09-09T11:31:21;4.43;;;1.40;;
11907;SDS011;6014;47.690;9.130;2022-09-09T11:33:59;4.55;;;1.30;;
11907;SDS011;6014;47.690;9.130;2022-09-09T11:36:48;3.15;;;0.93;;
11907;SDS011;6014;47.690;9.130;2022-09-09T11:39:26;2.78;;;1.00;;
11907;SDS011;6014;47.690;9.130;2022-09-09T11:42:05;6.47;;;1.40;;
11907;SDS011;6014;47.690;9.130;2022-09-09T11:44:34;4.10;;;1.00;;
11907;SDS011;6014;47.690;9.130;2022-09-09T11:47:03;2.08;;;1.00;;
11907;SDS011;6014;47.690;9.130;2022-09-09T11:49:41;4.93;;;1.08;;
11907;SDS011;6014;47.690;9.130;2022-09-09T11:52:12;4.10;;;1.05;;
11907;SDS011;6014;47.690;9.130;2022-09-09T11:54:45;2.50;;;1.10;;
11907;SDS011;6014;47.690;9.130;2022-09-09T11:57:21;2.60;;;0.80;;
11907;SDS011;6014;47.690;9.130;2022-09-09T11:59:52;5.55;;;1.02;;
11907;SDS011;6014;47.690;9.130;2022-09-09T12:02:22;3.80;;;1.00;;
11907;SDS011;6014;47.690;9.130;2022-09-09T12:04:57;2.38;;;1.15;;
11907;SDS011;6014;47.690;9.130;2022-09-09T12:07:30;1.10;;;0.90;;
11907;SDS011;6014;47.690;9.130;2022-09-09T12:10:02;3.55;;;1.10;;
11907;SDS011;6014;47.690;9.130;2022-09-09T12:12:32;3.38;;;1.00;;
11907;SDS011;6014;47.690;9.130;2022-09-09T12:15:18;1.73;;;0.98;;
11907;SDS011;6014;47.690;9.130;2022-09-09T12:17:47;7.03;;;1.15;;
11907;SDS011;6014;47.690;9.130;2022-09-09T12:20:19;3.10;;;0.93;;
11907;SDS011;6014;47.690;9.130;2022-09-09T12:22:55;2.70;;;1.00;;
11907;SDS011;6014;47.690;9.130;2022-09-09T12:25:30;3.15;;;0.77;;
11907;SDS011;6014;47.690;9.130;2022-09-09T12:28:03;3.97;;;0.98;;
11907;SDS011;6014;47.690;9.130;2022-09-09T12:30:34;1.63;;;0.68;;
11907;SDS011;6014;47.690;9.130;2022-09-09T12:33:08;2.25;;;0.85;;
11907;SDS011;6014;47.690;9.130;2022-09-09T12:35:40;5.35;;;1.02;;
11907;SDS011;6014;47.690;9.130;2022-09-09T12:38:12;2.60;;;0.80;;
11907;SDS011;6014;47.690;9.130;2022-09-09T12:40:42;6.00;;;1.08;;
11907;SDS011;6014;47.690;9.130;2022-09-09T12:43:17;2.55;;;1.10;;
11907;SDS011;6014;47.690;9.130;2022-09-09T12:45:47;2.13;;;1.08;;
11907;SDS011;6014;47.690;9.130;2022-09-09T12:48:24;2.35;;;0.90;;
11907;SDS011;6014;47.690;9.130;2022-09-09T12:50:56;2.22;;;0.93;;
11907;SDS011;6014;47.690;9.130;2022-09-09T12:53:25;2.92;;;1.10;;
11907;SDS011;6014;47.690;9.130;2022-09-09T12:55:55;2.53;;;1.05;;
11907;SDS011;6014;47.690;9.130;2022-09-09T12:58:24;7.05;;;1.40;;
11907;SDS011;6014;47.690;9.130;2022-09-09T13:00:55;5.25;;;1.10;;
11907;SDS011;6014;47.690;9.130;2022-09-09T13:03:23;2.95;;;1.23;;
11907;SDS011;6014;47.690;9.130;2022-09-09T13:05:53;2.80;;;1.00;;
11907;SDS011;6014;47.690;9.130;2022-09-09T13:08:23;2.53;;;1.02;;
11907;SDS011;6014;47.690;9.130;2022-09-09T13:10:53;2.97;;;0.98;;
11907;SDS011;6014;47.690;9.130;2022-09-09T13:13:28;3.38;;;1.10;;
11907;SDS011;6014;47.690;9.130;2022-09-09T13:15:57;2.72;;;1.20;;
11907;SDS011;6014;47.690;9.130;2022-09-09T13:18:27;2.65;;;0.82;;
11907;SDS011;6014;47.690;9.130;2022-09-09T13:20:56;4.57;;;0.98;;
11907;SDS011;6014;47.690;9.130;2022-09-09T13:23:27;6.97;;;1.23;;
11907;SDS011;6014;47.690;9.130;2022-09-09T13:25:57;4.47;;;1.67;;
11907;SDS011;6014;47.690;9.130;2022-09-09T13:28:27;5.75;;;1.45;;
11907;SDS011;6014;47.690;9.130;2022-09-09T13:30:59;5.80;;;1.23;;
11907;SDS011;6014;47.690;9.130;2022-09-09T13:33:30;2.97;;;1.10;;
11907;SDS011;6014;47.690;9.130;2022-09-09T13:35:59;2.42;;;1.08;;
11907;SDS011;6014;47.690;9.130;2022-09-09T13:38:32;2.33;;;0.98;;
11907;SDS011;6014;47.690;9.130;2022-09-09T13:41:01;2.65;;;1.30;;
11907;SDS011;6014;47.690;9.130;2022-09-09T13:43:31;1.10;;;0.80;;
11907;SDS011;6014;47.690;9.130;2022-09-09T13:46:00;2.40;;;1.08;;
11907;SDS011;6014;47.690;9.130;2022-09-09T13:48:29;2.63;;;0.98;;
11907;SDS011;6014;47.690;9.130;2022-09-09T13:51:02;1.08;;;0.77;;
11907;SDS011;6014;47.690;9.130;2022-09-09T13:53:33;4.05;;;1.60;;
11907;SDS011;6014;47.690;9.130;2022-09-09T13:56:02;2.88;;;0.90;;
11907;SDS011;6014;47.690;9.130;2022-09-09T13:58:30;3.78;;;0.95;;
11907;SDS011;6014;47.690;9.130;2022-09-09T14:00:58;2.17;;;0.98;;
11907;SDS011;6014;47.690;9.130;2022-09-09T14:03:30;4.68;;;1.80;;
11907;SDS011;6014;47.690;9.130;2022-09-09T14:06:00;1.50;;;0.80;;
11907;SDS011;6014;47.690;9.130;2022-09-09T14:08:28;2.10;;;0.82;;
11907;SDS011;6014;47.690;9.130;2022-09-09T14:11:05;2.53;;;0.80;;
11907;SDS011;6014;47.690;9.130;2022-09-09T14:13:33;2.97;;;1.08;;
11907;SDS011;6014;47.690;9.130;2022-09-09T14:16:03;2.80;;;1.02;;
11907;SDS011;6014;47.690;9.130;2022-09-09T14:18:32;6.18;;;1.25;;
11907;SDS011;6014;47.690;9.130;2022-09-09T14:21:00;2.83;;;0.85;;
11907;SDS011;6014;47.690;9.130;2022-09-09T14:23:29;2.58;;;1.10;;
11907;SDS011;6014;47.690;9.130;2022-09-09T14:25:58;2.83;;;1.00;;
11907;SDS011;6014;47.690;9.130;2022-09-09T14:28:28;2.40;;;1.02;;
11907;SDS011;6014;47.690;9.130;2022-09-09T14:31:16;2.05;;;1.05;;
11907;SDS011;6014;47.690;9.130;2022-09-09T14:33:45;2.72;;;0.85;;
11907;SDS011;6014;47.690;9.130;2022-09-09T14:36:13;2.22;;;0.90;;
11907;SDS011;6014;47.690;9.130;2022-09-09T14:38:42;3.55;;;0.90;;
11907;SDS011;6014;47.690;9.130;2022-09-09T14:41:11;1.58;;;0.85;;
11907;SDS011;6014;47.690;9.130;2022-09-09T14:43:41;1.80;;;0.80;;
11907;SDS011;6014;47.690;9.130;2022-09-09T14:46:10;4.53;;;1.25;;
11907;SDS011;6014;47.690;9.130;2022-09-09T14:48:38;2.45;;;1.05;;
11907;SDS011;6014;47.690;9.130;2022-09-09T14:51:07;3.08;;;0.95;;
11907;SDS011;6014;47.690;9.130;2022-09-09T14:53:36;3.70;;;0.90;;
11907;SDS011;6014;47.690;9.130;2022-09-09T14:56:05;2.85;;;1.00;;
11907;SDS011;6014;47.690;9.130;2022-09-09T14:58:34;5.30;;;1.30;;
11907;SDS011;6014;47.690;9.130;2022-09-09T15:01:06;2.08;;;0.93;;
11907;SDS011;6014;47.690;9.130;2022-09-09T15:03:36;1.85;;;0.90;;
11907;SDS011;6014;47.690;9.130;2022-09-09T15:06:05;2.97;;;1.00;;
11907;SDS011;6014;47.690;9.130;2022-09-09T15:08:35;2.40;;;0.93;;
11907;SDS011;6014;47.690;9.130;2022-09-09T15:11:08;3.17;;;1.00;;
11907;SDS011;6014;47.690;9.130;2022-09-09T15:13:37;2.40;;;0.88;;
11907;SDS011;6014;47.690;9.130;2022-09-09T15:16:08;3.30;;;0.85;;
11907;SDS011;6014;47.690;9.130;2022-09-09T15:18:37;3.25;;;0.95;;
11907;SDS011;6014;47.690;9.130;2022-09-09T15:21:09;2.58;;;1.02;;
11907;SDS011;6014;47.690;9.130;2022-09-09T15:23:37;3.10;;;0.90;;
11907;SDS011;6014;47.690;9.130;2022-09-09T15:26:06;3.35;;;0.57;;
11907;SDS011;6014;47.690;9.130;2022-09-09T15:28:35;3.38;;;1.00;;
11907;SDS011;6014;47.690;9.130;2022-09-09T15:31:05;2.55;;;0.75;;